sensor_id;sensor_type;location;lat;lon;timestamp;P1;durP1;ratioP1;P2;durP2;ratioP2
35022;SDS011;21214;44.912;8.204;2023-12-29T00:01:47;65.78;;;44.20;;
35022;SDS011;21214;44.912;8.204;2023-12-29T00:04:13;59.88;;;43.55;;
35022;SDS011;21214;44.912;8.204;2023-12-29T00:06:38;64.15;;;43.15;;
35022;SDS011;21214;44.912;8.204;2023-12-29T00:09:05;63.67;;;43.35;;
35022;SDS011;21214;44.912;8.204;2023-12-29T00:11:30;62.95;;;43.33;;
35022;SDS011;21214;44.912;8.204;2023-12-29T00:13:57;63.75;;;44.13;;
35022;SDS011;21214;44.912;8.204;2023-12-29T00:16:22;65.68;;;44.80;;
35022;SDS011;21214;44.912;8.204;2023-12-29T00:18:48;61.03;;;44.28;;
35022;SDS011;21214;44.912;8.204;2023-12-29T00:21:13;62.10;;;44.72;;
35022;SDS011;21214;44.912;8.204;2023-12-29T00:23:39;64.57;;;45.08;;
35022;SDS011;21214;44.912;8.204;2023-12-29T00:26:04;66.10;;;45.05;;
35022;SDS011;21214;44.912;8.204;2023-12-29T00:28:30;65.65;;;45.40;;
35022;SDS011;21214;44.912;8.204;2023-12-29T00:30:55;65.88;;;46.33;;
35022;SDS011;21214;44.912;8.204;2023-12-29T00:33:21;65.78;;;45.00;;
35022;SDS011;21214;44.912;8.204;2023-12-29T00:35:46;62.05;;;43.55;;
35022;SDS011;21214;44.912;8.204;2023-12-29T00:38:12;61.92;;;44.67;;
35022;SDS011;21214;44.912;8.204;2023-12-29T00:40:37;65.45;;;43.90;;
35022;SDS011;21214;44.912;8.204;2023-12-29T00:43:03;68.43;;;45.15;;
35022;SDS011;21214;44.912;8.204;2023-12-29T00:45:28;71.43;;;47.10;;
35022;SDS011;21214;44.912;8.204;2023-12-29T00:48:01;66.38;;;44.85;;
35022;SDS011;21214;44.912;8.204;2023-12-29T00:50:27;70.30;;;44.17;;
35022;SDS011;21214;44.912;8.204;2023-12-29T00:52:52;62.80;;;43.60;;
35022;SDS011;21214;44.912;8.204;2023-12-29T00:55:18;64.63;;;46.75;;
35022;SDS011;21214;44.912;8.204;2023-12-29T00:57:44;63.72;;;44.88;;
35022;SDS011;21214;44.912;8.204;2023-12-29T01:00:11;64.68;;;43.95;;
35022;SDS011;21214;44.912;8.204;2023-12-29T01:02:38;63.53;;;43.40;;
35022;SDS011;21214;44.912;8.204;2023-12-29T01:05:06;64.28;;;43.30;;
35022;SDS011;21214;44.912;8.204;2023-12-29T01:07:32;67.50;;;44.65;;
35022;SDS011;21214;44.912;8.204;2023-12-29T01:09:57;66.30;;;43.63;;
35022;SDS011;21214;44.912;8.204;2023-12-29T01:12:23;60.60;;;44.47;;
35022;SDS011;21214;44.912;8.204;2023-12-29T01:14:48;63.70;;;45.03;;
35022;SDS011;21214;44.912;8.204;2023-12-29T01:17:13;59.55;;;43.33;;
35022;SDS011;21214;44.912;8.204;2023-12-29T01:19:39;63.40;;;43.17;;
35022;SDS011;21214;44.912;8.204;2023-12-29T01:22:04;64.00;;;43.58;;
35022;SDS011;21214;44.912;8.204;2023-12-29T01:24:30;62.88;;;44.45;;
35022;SDS011;21214;44.912;8.204;2023-12-29T01:26:56;65.32;;;44.33;;
35022;SDS011;21214;44.912;8.204;2023-12-29T01:29:21;64.93;;;43.00;;
35022;SDS011;21214;44.912;8.204;2023-12-29T01:31:47;63.72;;;45.17;;
35022;SDS011;21214;44.912;8.204;2023-12-29T01:34:12;61.22;;;43.90;;
35022;SDS011;21214;44.912;8.204;2023-12-29T01:36:38;72.25;;;46.40;;
35022;SDS011;21214;44.912;8.204;2023-12-29T01:39:03;69.07;;;46.83;;
35022;SDS011;21214;44.912;8.204;2023-12-29T01:41:29;66.47;;;45.55;;
35022;SDS011;21214;44.912;8.204;2023-12-29T01:46:28;67.28;;;45.15;;
35022;SDS011;21214;44.912;8.204;2023-12-29T01:48:55;63.72;;;44.80;;
35022;SDS011;21214;44.912;8.204;2023-12-29T01:51:24;65.78;;;45.72;;
35022;SDS011;21214;44.912;8.204;2023-12-29T01:53:54;63.38;;;44.28;;
35022;SDS011;21214;44.912;8.204;2023-12-29T01:56:22;61.20;;;43.75;;
35022;SDS011;21214;44.912;8.204;2023-12-29T01:58:48;61.90;;;44.35;;
35022;SDS011;21214;44.912;8.204;2023-12-29T02:01:15;62.00;;;42.88;;
35022;SDS011;21214;44.912;8.204;2023-12-29T02:03:42;63.33;;;42.15;;
35022;SDS011;21214;44.912;8.204;2023-12-29T02:06:09;61.85;;;42.42;;
35022;SDS011;21214;44.912;8.204;2023-12-29T02:08:38;68.43;;;43.35;;
35022;SDS011;21214;44.912;8.204;2023-12-29T02:11:06;63.42;;;42.92;;
35022;SDS011;21214;44.912;8.204;2023-12-29T02:13:31;58.13;;;41.20;;
35022;SDS011;21214;44.912;8.204;2023-12-29T02:15:58;61.17;;;43.25;;
35022;SDS011;21214;44.912;8.204;2023-12-29T02:18:31;64.03;;;44.28;;
35022;SDS011;21214;44.912;8.204;2023-12-29T02:20:59;63.53;;;43.75;;
35022;SDS011;21214;44.912;8.204;2023-12-29T02:23:25;59.97;;;43.10;;
35022;SDS011;21214;44.912;8.204;2023-12-29T02:25:50;61.50;;;44.03;;
35022;SDS011;21214;44.912;8.204;2023-12-29T02:28:23;62.83;;;43.45;;
35022;SDS011;21214;44.912;8.204;2023-12-29T02:30:57;62.55;;;43.88;;
35022;SDS011;21214;44.912;8.204;2023-12-29T02:33:31;61.08;;;43.38;;
35022;SDS011;21214;44.912;8.204;2023-12-29T02:36:00;62.88;;;42.83;;
35022;SDS011;21214;44.912;8.204;2023-12-29T02:38:27;55.90;;;41.80;;
35022;SDS011;21214;44.912;8.204;2023-12-29T02:40:57;67.80;;;44.83;;
35022;SDS011;21214;44.912;8.204;2023-12-29T02:43:23;60.60;;;42.30;;
35022;SDS011;21214;44.912;8.204;2023-12-29T02:45:48;67.18;;;46.00;;
35022;SDS011;21214;44.912;8.204;2023-12-29T02:48:14;65.80;;;43.70;;
35022;SDS011;21214;44.912;8.204;2023-12-29T02:50:39;64.60;;;43.88;;
35022;SDS011;21214;44.912;8.204;2023-12-29T02:53:05;67.65;;;44.65;;
35022;SDS011;21214;44.912;8.204;2023-12-29T02:55:31;62.65;;;45.20;;
35022;SDS011;21214;44.912;8.204;2023-12-29T02:57:57;63.65;;;43.67;;
35022;SDS011;21214;44.912;8.204;2023-12-29T03:00:22;64.28;;;44.50;;
35022;SDS011;21214;44.912;8.204;2023-12-29T03:02:47;63.63;;;44.42;;
35022;SDS011;21214;44.912;8.204;2023-12-29T03:05:13;65.82;;;43.83;;
35022;SDS011;21214;44.912;8.204;2023-12-29T03:07:39;62.75;;;44.13;;
35022;SDS011;21214;44.912;8.204;2023-12-29T03:10:06;69.72;;;45.58;;
35022;SDS011;21214;44.912;8.204;2023-12-29T03:12:32;62.65;;;42.92;;
35022;SDS011;21214;44.912;8.204;2023-12-29T03:14:58;59.97;;;42.13;;
35022;SDS011;21214;44.912;8.204;2023-12-29T03:17:25;61.97;;;43.75;;
35022;SDS011;21214;44.912;8.204;2023-12-29T03:19:51;64.53;;;44.85;;
35022;SDS011;21214;44.912;8.204;2023-12-29T03:22:17;67.40;;;44.42;;
35022;SDS011;21214;44.912;8.204;2023-12-29T03:24:43;61.75;;;42.20;;
35022;SDS011;21214;44.912;8.204;2023-12-29T03:27:08;65.90;;;45.50;;
35022;SDS011;21214;44.912;8.204;2023-12-29T03:29:34;62.17;;;43.42;;
35022;SDS011;21214;44.912;8.204;2023-12-29T03:32:00;62.40;;;43.42;;
35022;SDS011;21214;44.912;8.204;2023-12-29T03:34:25;67.80;;;46.03;;
35022;SDS011;21214;44.912;8.204;2023-12-29T03:36:51;68.80;;;46.20;;
35022;SDS011;21214;44.912;8.204;2023-12-29T03:39:17;59.10;;;44.05;;
35022;SDS011;21214;44.912;8.204;2023-12-29T03:41:43;65.22;;;45.78;;
35022;SDS011;21214;44.912;8.204;2023-12-29T03:44:08;62.42;;;43.72;;
35022;SDS011;21214;44.912;8.204;2023-12-29T03:46:36;65.78;;;45.22;;
35022;SDS011;21214;44.912;8.204;2023-12-29T03:49:01;64.50;;;42.60;;
35022;SDS011;21214;44.912;8.204;2023-12-29T03:51:28;63.70;;;43.20;;
35022;SDS011;21214;44.912;8.204;2023-12-29T03:53:53;61.42;;;43.70;;
35022;SDS011;21214;44.912;8.204;2023-12-29T03:56:19;61.88;;;44.13;;
35022;SDS011;21214;44.912;8.204;2023-12-29T03:58:44;64.45;;;43.28;;
35022;SDS011;21214;44.912;8.204;2023-12-29T04:01:11;63.92;;;44.45;;
35022;SDS011;21214;44.912;8.204;2023-12-29T04:03:37;66.50;;;46.10;;
35022;SDS011;21214;44.912;8.204;2023-12-29T04:06:03;65.55;;;44.85;;
35022;SDS011;21214;44.912;8.204;2023-12-29T04:08:29;63.53;;;42.90;;
35022;SDS011;21214;44.912;8.204;2023-12-29T04:10:55;64.18;;;44.15;;
35022;SDS011;21214;44.912;8.204;2023-12-29T04:13:20;66.38;;;44.90;;
35022;SDS011;21214;44.912;8.204;2023-12-29T04:15:47;67.53;;;45.30;;
35022;SDS011;21214;44.912;8.204;2023-12-29T04:18:12;67.45;;;47.15;;
35022;SDS011;21214;44.912;8.204;2023-12-29T04:20:38;66.90;;;44.50;;
35022;SDS011;21214;44.912;8.204;2023-12-29T04:23:05;62.88;;;44.55;;
35022;SDS011;21214;44.912;8.204;2023-12-29T04:25:31;67.40;;;44.03;;
35022;SDS011;21214;44.912;8.204;2023-12-29T04:27:57;63.80;;;43.60;;
35022;SDS011;21214;44.912;8.204;2023-12-29T04:30:23;59.67;;;43.38;;
35022;SDS011;21214;44.912;8.204;2023-12-29T04:32:48;62.67;;;43.75;;
35022;SDS011;21214;44.912;8.204;2023-12-29T04:35:15;62.50;;;44.00;;
35022;SDS011;21214;44.912;8.204;2023-12-29T04:37:43;62.58;;;43.50;;
35022;SDS011;21214;44.912;8.204;2023-12-29T04:40:10;58.88;;;42.92;;
35022;SDS011;21214;44.912;8.204;2023-12-29T04:42:35;63.85;;;43.70;;
35022;SDS011;21214;44.912;8.204;2023-12-29T04:45:01;61.67;;;42.58;;
35022;SDS011;21214;44.912;8.204;2023-12-29T04:47:26;59.90;;;42.72;;
35022;SDS011;21214;44.912;8.204;2023-12-29T04:49:52;58.92;;;42.80;;
35022;SDS011;21214;44.912;8.204;2023-12-29T04:52:17;58.70;;;41.65;;
35022;SDS011;21214;44.912;8.204;2023-12-29T04:54:43;60.40;;;42.42;;
35022;SDS011;21214;44.912;8.204;2023-12-29T04:57:08;56.55;;;41.38;;
35022;SDS011;21214;44.912;8.204;2023-12-29T04:59:33;59.30;;;40.40;;
35022;SDS011;21214;44.912;8.204;2023-12-29T05:01:59;60.75;;;40.80;;
35022;SDS011;21214;44.912;8.204;2023-12-29T05:04:24;57.72;;;39.72;;
35022;SDS011;21214;44.912;8.204;2023-12-29T05:06:50;57.67;;;40.20;;
35022;SDS011;21214;44.912;8.204;2023-12-29T05:09:15;64.75;;;42.42;;
35022;SDS011;21214;44.912;8.204;2023-12-29T05:11:41;63.88;;;42.90;;
35022;SDS011;21214;44.912;8.204;2023-12-29T05:14:06;56.35;;;40.83;;
35022;SDS011;21214;44.912;8.204;2023-12-29T05:16:31;58.75;;;42.03;;
35022;SDS011;21214;44.912;8.204;2023-12-29T05:18:58;61.20;;;42.47;;
35022;SDS011;21214;44.912;8.204;2023-12-29T05:21:23;67.07;;;41.63;;
35022;SDS011;21214;44.912;8.204;2023-12-29T05:23:51;62.03;;;42.45;;
35022;SDS011;21214;44.912;8.204;2023-12-29T05:26:16;64.68;;;42.33;;
35022;SDS011;21214;44.912;8.204;2023-12-29T05:28:41;65.28;;;42.15;;
35022;SDS011;21214;44.912;8.204;2023-12-29T05:31:07;59.15;;;41.45;;
35022;SDS011;21214;44.912;8.204;2023-12-29T05:33:33;66.85;;;41.05;;
35022;SDS011;21214;44.912;8.204;2023-12-29T05:36:04;63.17;;;42.08;;
35022;SDS011;21214;44.912;8.204;2023-12-29T05:38:31;61.60;;;42.60;;
35022;SDS011;21214;44.912;8.204;2023-12-29T05:40:56;61.38;;;42.80;;
35022;SDS011;21214;44.912;8.204;2023-12-29T05:43:23;65.22;;;43.38;;
35022;SDS011;21214;44.912;8.204;2023-12-29T05:45:48;63.63;;;41.88;;
35022;SDS011;21214;44.912;8.204;2023-12-29T05:48:14;60.88;;;41.75;;
35022;SDS011;21214;44.912;8.204;2023-12-29T05:50:39;60.28;;;41.95;;
35022;SDS011;21214;44.912;8.204;2023-12-29T05:53:05;60.05;;;41.45;;
35022;SDS011;21214;44.912;8.204;2023-12-29T05:55:31;59.05;;;39.95;;
35022;SDS011;21214;44.912;8.204;2023-12-29T05:57:56;58.17;;;41.58;;
35022;SDS011;21214;44.912;8.204;2023-12-29T06:00:22;63.92;;;41.38;;
35022;SDS011;21214;44.912;8.204;2023-12-29T06:02:47;56.97;;;40.53;;
35022;SDS011;21214;44.912;8.204;2023-12-29T06:05:13;60.50;;;41.20;;
35022;SDS011;21214;44.912;8.204;2023-12-29T06:07:40;57.90;;;41.45;;
35022;SDS011;21214;44.912;8.204;2023-12-29T06:10:05;57.15;;;40.10;;
35022;SDS011;21214;44.912;8.204;2023-12-29T06:12:31;57.10;;;40.88;;
35022;SDS011;21214;44.912;8.204;2023-12-29T06:14:56;59.58;;;41.17;;
35022;SDS011;21214;44.912;8.204;2023-12-29T06:17:22;59.63;;;42.65;;
35022;SDS011;21214;44.912;8.204;2023-12-29T06:19:47;54.72;;;39.90;;
35022;SDS011;21214;44.912;8.204;2023-12-29T06:22:13;63.25;;;41.80;;
35022;SDS011;21214;44.912;8.204;2023-12-29T06:24:39;55.75;;;41.03;;
35022;SDS011;21214;44.912;8.204;2023-12-29T06:27:08;59.50;;;41.65;;
35022;SDS011;21214;44.912;8.204;2023-12-29T06:29:34;56.60;;;40.67;;
35022;SDS011;21214;44.912;8.204;2023-12-29T06:32:00;63.28;;;42.17;;
35022;SDS011;21214;44.912;8.204;2023-12-29T06:34:25;57.25;;;39.50;;
35022;SDS011;21214;44.912;8.204;2023-12-29T06:36:51;59.65;;;41.08;;
35022;SDS011;21214;44.912;8.204;2023-12-29T06:39:17;59.20;;;41.13;;
35022;SDS011;21214;44.912;8.204;2023-12-29T06:41:42;59.03;;;39.35;;
35022;SDS011;21214;44.912;8.204;2023-12-29T06:44:08;58.50;;;41.65;;
35022;SDS011;21214;44.912;8.204;2023-12-29T06:46:34;57.40;;;40.97;;
35022;SDS011;21214;44.912;8.204;2023-12-29T06:49:02;58.78;;;41.80;;
35022;SDS011;21214;44.912;8.204;2023-12-29T06:51:27;59.05;;;41.40;;
35022;SDS011;21214;44.912;8.204;2023-12-29T06:53:53;64.68;;;41.45;;
35022;SDS011;21214;44.912;8.204;2023-12-29T06:56:19;60.85;;;42.30;;
35022;SDS011;21214;44.912;8.204;2023-12-29T06:58:45;59.63;;;41.55;;
35022;SDS011;21214;44.912;8.204;2023-12-29T07:01:11;58.55;;;42.08;;
35022;SDS011;21214;44.912;8.204;2023-12-29T07:03:36;65.38;;;41.05;;
35022;SDS011;21214;44.912;8.204;2023-12-29T07:06:03;61.40;;;42.00;;
35022;SDS011;21214;44.912;8.204;2023-12-29T07:08:29;60.20;;;41.00;;
35022;SDS011;21214;44.912;8.204;2023-12-29T07:10:54;57.92;;;42.22;;
35022;SDS011;21214;44.912;8.204;2023-12-29T07:13:20;60.05;;;42.28;;
35022;SDS011;21214;44.912;8.204;2023-12-29T07:15:46;61.78;;;42.90;;
35022;SDS011;21214;44.912;8.204;2023-12-29T07:18:13;60.08;;;41.53;;
35022;SDS011;21214;44.912;8.204;2023-12-29T07:20:39;65.03;;;44.10;;
35022;SDS011;21214;44.912;8.204;2023-12-29T07:23:04;60.95;;;42.20;;
35022;SDS011;21214;44.912;8.204;2023-12-29T07:25:30;58.22;;;41.92;;
35022;SDS011;21214;44.912;8.204;2023-12-29T07:27:55;59.35;;;41.40;;
35022;SDS011;21214;44.912;8.204;2023-12-29T07:30:21;60.65;;;41.95;;
35022;SDS011;21214;44.912;8.204;2023-12-29T07:32:47;59.75;;;42.97;;
35022;SDS011;21214;44.912;8.204;2023-12-29T07:35:12;55.70;;;38.45;;
35022;SDS011;21214;44.912;8.204;2023-12-29T07:37:41;58.30;;;41.17;;
35022;SDS011;21214;44.912;8.204;2023-12-29T07:40:07;60.92;;;41.70;;
35022;SDS011;21214;44.912;8.204;2023-12-29T07:42:35;62.60;;;40.15;;
35022;SDS011;21214;44.912;8.204;2023-12-29T07:45:01;62.47;;;42.33;;
35022;SDS011;21214;44.912;8.204;2023-12-29T07:47:26;58.17;;;40.17;;
35022;SDS011;21214;44.912;8.204;2023-12-29T07:49:52;56.95;;;39.83;;
35022;SDS011;21214;44.912;8.204;2023-12-29T07:52:17;59.28;;;40.63;;
35022;SDS011;21214;44.912;8.204;2023-12-29T07:54:43;52.20;;;38.88;;
35022;SDS011;21214;44.912;8.204;2023-12-29T07:57:08;57.03;;;39.42;;
35022;SDS011;21214;44.912;8.204;2023-12-29T07:59:34;56.97;;;39.47;;
35022;SDS011;21214;44.912;8.204;2023-12-29T08:01:59;60.50;;;39.70;;
35022;SDS011;21214;44.912;8.204;2023-12-29T08:04:24;59.95;;;39.10;;
35022;SDS011;21214;44.912;8.204;2023-12-29T08:06:50;58.55;;;40.30;;
35022;SDS011;21214;44.912;8.204;2023-12-29T08:09:15;60.28;;;40.63;;
35022;SDS011;21214;44.912;8.204;2023-12-29T08:11:41;62.22;;;39.90;;
35022;SDS011;21214;44.912;8.204;2023-12-29T08:14:08;50.15;;;38.83;;
35022;SDS011;21214;44.912;8.204;2023-12-29T08:16:37;55.60;;;39.95;;
35022;SDS011;21214;44.912;8.204;2023-12-29T08:21:29;55.28;;;39.35;;
35022;SDS011;21214;44.912;8.204;2023-12-29T08:23:55;58.47;;;39.15;;
35022;SDS011;21214;44.912;8.204;2023-12-29T08:26:20;56.40;;;39.67;;
35022;SDS011;21214;44.912;8.204;2023-12-29T08:28:45;53.28;;;39.35;;
35022;SDS011;21214;44.912;8.204;2023-12-29T08:31:11;58.33;;;39.35;;
35022;SDS011;21214;44.912;8.204;2023-12-29T08:33:36;58.00;;;38.33;;
35022;SDS011;21214;44.912;8.204;2023-12-29T08:36:02;54.92;;;39.83;;
35022;SDS011;21214;44.912;8.204;2023-12-29T08:38:29;56.15;;;38.40;;
35022;SDS011;21214;44.912;8.204;2023-12-29T08:40:55;52.10;;;37.08;;
35022;SDS011;21214;44.912;8.204;2023-12-29T08:43:21;52.08;;;37.45;;
35022;SDS011;21214;44.912;8.204;2023-12-29T08:45:49;51.38;;;38.40;;
35022;SDS011;21214;44.912;8.204;2023-12-29T08:48:15;56.72;;;38.47;;
35022;SDS011;21214;44.912;8.204;2023-12-29T08:50:41;54.90;;;39.78;;
35022;SDS011;21214;44.912;8.204;2023-12-29T08:53:08;53.10;;;37.90;;
35022;SDS011;21214;44.912;8.204;2023-12-29T08:55:34;53.90;;;38.40;;
35022;SDS011;21214;44.912;8.204;2023-12-29T08:57:59;50.45;;;38.28;;
35022;SDS011;21214;44.912;8.204;2023-12-29T09:00:25;57.20;;;38.97;;
35022;SDS011;21214;44.912;8.204;2023-12-29T09:02:50;55.20;;;39.05;;
35022;SDS011;21214;44.912;8.204;2023-12-29T09:05:15;57.50;;;38.97;;
35022;SDS011;21214;44.912;8.204;2023-12-29T09:07:41;56.42;;;39.78;;
35022;SDS011;21214;44.912;8.204;2023-12-29T09:10:07;62.20;;;40.08;;
35022;SDS011;21214;44.912;8.204;2023-12-29T09:12:36;60.33;;;39.13;;
35022;SDS011;21214;44.912;8.204;2023-12-29T09:15:02;54.35;;;40.47;;
35022;SDS011;21214;44.912;8.204;2023-12-29T09:17:28;57.58;;;40.25;;
35022;SDS011;21214;44.912;8.204;2023-12-29T09:19:54;60.25;;;41.45;;
35022;SDS011;21214;44.912;8.204;2023-12-29T09:22:20;61.72;;;41.03;;
35022;SDS011;21214;44.912;8.204;2023-12-29T09:24:45;59.80;;;39.78;;
35022;SDS011;21214;44.912;8.204;2023-12-29T09:27:10;56.45;;;40.13;;
35022;SDS011;21214;44.912;8.204;2023-12-29T09:29:36;59.15;;;40.63;;
35022;SDS011;21214;44.912;8.204;2023-12-29T09:32:02;52.95;;;38.92;;
35022;SDS011;21214;44.912;8.204;2023-12-29T09:34:27;57.58;;;39.95;;
35022;SDS011;21214;44.912;8.204;2023-12-29T09:36:53;56.45;;;38.30;;
35022;SDS011;21214;44.912;8.204;2023-12-29T09:39:18;54.88;;;37.95;;
35022;SDS011;21214;44.912;8.204;2023-12-29T09:41:46;56.05;;;38.67;;
35022;SDS011;21214;44.912;8.204;2023-12-29T09:44:13;52.70;;;39.72;;
35022;SDS011;21214;44.912;8.204;2023-12-29T09:46:40;60.65;;;39.88;;
35022;SDS011;21214;44.912;8.204;2023-12-29T09:49:06;55.28;;;38.03;;
35022;SDS011;21214;44.912;8.204;2023-12-29T09:51:34;48.53;;;35.97;;
35022;SDS011;21214;44.912;8.204;2023-12-29T09:54:01;48.20;;;36.20;;
35022;SDS011;21214;44.912;8.204;2023-12-29T09:56:28;55.10;;;38.63;;
35022;SDS011;21214;44.912;8.204;2023-12-29T09:58:53;51.58;;;37.20;;
35022;SDS011;21214;44.912;8.204;2023-12-29T10:01:22;54.35;;;37.03;;
35022;SDS011;21214;44.912;8.204;2023-12-29T10:03:49;56.30;;;37.00;;
35022;SDS011;21214;44.912;8.204;2023-12-29T10:06:16;54.17;;;33.42;;
35022;SDS011;21214;44.912;8.204;2023-12-29T10:08:46;49.78;;;33.75;;
35022;SDS011;21214;44.912;8.204;2023-12-29T10:11:15;45.75;;;32.90;;
35022;SDS011;21214;44.912;8.204;2023-12-29T10:13:43;44.83;;;33.00;;
35022;SDS011;21214;44.912;8.204;2023-12-29T10:24:29;43.30;;;32.00;;
35022;SDS011;21214;44.912;8.204;2023-12-29T10:26:54;47.42;;;32.17;;
35022;SDS011;21214;44.912;8.204;2023-12-29T10:29:20;42.47;;;31.08;;
35022;SDS011;21214;44.912;8.204;2023-12-29T10:31:46;46.55;;;32.15;;
35022;SDS011;21214;44.912;8.204;2023-12-29T10:34:21;40.58;;;29.83;;
35022;SDS011;21214;44.912;8.204;2023-12-29T10:36:53;42.75;;;29.20;;
35022;SDS011;21214;44.912;8.204;2023-12-29T10:39:19;39.05;;;29.40;;
35022;SDS011;21214;44.912;8.204;2023-12-29T10:41:45;40.35;;;30.23;;
35022;SDS011;21214;44.912;8.204;2023-12-29T10:44:11;42.35;;;29.00;;
35022;SDS011;21214;44.912;8.204;2023-12-29T10:46:37;43.75;;;30.00;;
35022;SDS011;21214;44.912;8.204;2023-12-29T10:51:35;41.40;;;29.23;;
35022;SDS011;21214;44.912;8.204;2023-12-29T10:54:02;43.63;;;30.08;;
35022;SDS011;21214;44.912;8.204;2023-12-29T10:56:28;42.65;;;30.08;;
35022;SDS011;21214;44.912;8.204;2023-12-29T10:59:04;39.25;;;30.23;;
35022;SDS011;21214;44.912;8.204;2023-12-29T11:01:31;39.13;;;27.30;;
35022;SDS011;21214;44.912;8.204;2023-12-29T11:04:02;42.92;;;29.50;;
35022;SDS011;21214;44.912;8.204;2023-12-29T11:06:29;38.95;;;29.23;;
35022;SDS011;21214;44.912;8.204;2023-12-29T11:09:05;45.25;;;29.95;;
35022;SDS011;21214;44.912;8.204;2023-12-29T11:11:30;40.90;;;30.08;;
35022;SDS011;21214;44.912;8.204;2023-12-29T11:13:57;42.13;;;29.40;;
35022;SDS011;21214;44.912;8.204;2023-12-29T11:16:23;41.47;;;30.75;;
35022;SDS011;21214;44.912;8.204;2023-12-29T11:18:49;38.08;;;29.17;;
35022;SDS011;21214;44.912;8.204;2023-12-29T11:21:16;46.60;;;30.52;;
35022;SDS011;21214;44.912;8.204;2023-12-29T11:23:42;41.83;;;30.10;;
35022;SDS011;21214;44.912;8.204;2023-12-29T11:26:08;39.25;;;29.42;;
35022;SDS011;21214;44.912;8.204;2023-12-29T11:28:35;40.83;;;29.38;;
35022;SDS011;21214;44.912;8.204;2023-12-29T11:31:01;39.85;;;29.85;;
35022;SDS011;21214;44.912;8.204;2023-12-29T11:33:30;45.70;;;30.50;;
35022;SDS011;21214;44.912;8.204;2023-12-29T11:43:55;41.45;;;28.85;;
35022;SDS011;21214;44.912;8.204;2023-12-29T11:49:03;41.75;;;29.42;;
35022;SDS011;21214;44.912;8.204;2023-12-29T11:51:42;43.78;;;30.23;;
35022;SDS011;21214;44.912;8.204;2023-12-29T11:54:08;41.20;;;28.75;;
35022;SDS011;21214;44.912;8.204;2023-12-29T11:56:38;40.22;;;28.08;;
35022;SDS011;21214;44.912;8.204;2023-12-29T11:59:20;40.67;;;27.58;;
35022;SDS011;21214;44.912;8.204;2023-12-29T12:01:47;41.08;;;27.33;;
35022;SDS011;21214;44.912;8.204;2023-12-29T12:07:03;35.75;;;26.67;;
35022;SDS011;21214;44.912;8.204;2023-12-29T12:09:30;36.92;;;25.13;;
35022;SDS011;21214;44.912;8.204;2023-12-29T12:11:55;35.00;;;25.80;;
35022;SDS011;21214;44.912;8.204;2023-12-29T12:17:08;37.58;;;26.02;;
35022;SDS011;21214;44.912;8.204;2023-12-29T12:19:34;34.97;;;25.52;;
35022;SDS011;21214;44.912;8.204;2023-12-29T12:22:00;36.33;;;25.65;;
35022;SDS011;21214;44.912;8.204;2023-12-29T12:24:27;38.05;;;25.75;;
35022;SDS011;21214;44.912;8.204;2023-12-29T12:26:54;35.33;;;26.17;;
35022;SDS011;21214;44.912;8.204;2023-12-29T12:29:20;31.08;;;23.75;;
35022;SDS011;21214;44.912;8.204;2023-12-29T12:31:55;32.95;;;24.88;;
35022;SDS011;21214;44.912;8.204;2023-12-29T12:34:21;33.97;;;24.30;;
35022;SDS011;21214;44.912;8.204;2023-12-29T12:36:47;34.20;;;23.40;;
35022;SDS011;21214;44.912;8.204;2023-12-29T12:39:17;37.38;;;24.40;;
35022;SDS011;21214;44.912;8.204;2023-12-29T12:41:43;32.88;;;23.38;;
35022;SDS011;21214;44.912;8.204;2023-12-29T12:46:49;36.70;;;23.92;;
35022;SDS011;21214;44.912;8.204;2023-12-29T12:49:36;31.95;;;23.30;;
35022;SDS011;21214;44.912;8.204;2023-12-29T12:52:02;37.67;;;25.15;;
35022;SDS011;21214;44.912;8.204;2023-12-29T12:54:28;35.90;;;24.92;;
35022;SDS011;21214;44.912;8.204;2023-12-29T12:56:54;35.75;;;24.00;;
35022;SDS011;21214;44.912;8.204;2023-12-29T12:59:20;33.75;;;24.20;;
35022;SDS011;21214;44.912;8.204;2023-12-29T13:01:46;31.45;;;22.58;;
35022;SDS011;21214;44.912;8.204;2023-12-29T13:04:11;30.13;;;22.90;;
35022;SDS011;21214;44.912;8.204;2023-12-29T13:06:41;32.58;;;23.45;;
35022;SDS011;21214;44.912;8.204;2023-12-29T13:09:11;33.58;;;23.48;;
35022;SDS011;21214;44.912;8.204;2023-12-29T13:11:38;30.52;;;23.13;;
35022;SDS011;21214;44.912;8.204;2023-12-29T13:14:05;31.88;;;23.27;;
35022;SDS011;21214;44.912;8.204;2023-12-29T13:16:33;36.80;;;23.83;;
35022;SDS011;21214;44.912;8.204;2023-12-29T13:19:20;30.73;;;23.73;;
35022;SDS011;21214;44.912;8.204;2023-12-29T13:21:50;32.78;;;24.73;;
35022;SDS011;21214;44.912;8.204;2023-12-29T13:24:20;31.83;;;23.42;;
35022;SDS011;21214;44.912;8.204;2023-12-29T13:26:47;31.15;;;24.40;;
35022;SDS011;21214;44.912;8.204;2023-12-29T13:29:18;30.15;;;23.80;;
35022;SDS011;21214;44.912;8.204;2023-12-29T13:31:46;31.90;;;23.95;;
35022;SDS011;21214;44.912;8.204;2023-12-29T13:34:18;33.83;;;24.48;;
35022;SDS011;21214;44.912;8.204;2023-12-29T13:37:03;32.85;;;23.90;;
35022;SDS011;21214;44.912;8.204;2023-12-29T13:39:38;31.52;;;23.75;;
35022;SDS011;21214;44.912;8.204;2023-12-29T13:42:08;34.47;;;24.80;;
35022;SDS011;21214;44.912;8.204;2023-12-29T13:44:35;35.33;;;23.88;;
35022;SDS011;21214;44.912;8.204;2023-12-29T13:47:06;38.08;;;25.05;;
35022;SDS011;21214;44.912;8.204;2023-12-29T13:49:32;32.55;;;23.27;;
35022;SDS011;21214;44.912;8.204;2023-12-29T13:52:02;37.50;;;23.75;;
35022;SDS011;21214;44.912;8.204;2023-12-29T13:54:28;33.25;;;24.02;;
35022;SDS011;21214;44.912;8.204;2023-12-29T13:56:54;36.35;;;23.77;;
35022;SDS011;21214;44.912;8.204;2023-12-29T13:59:29;35.17;;;23.77;;
35022;SDS011;21214;44.912;8.204;2023-12-29T14:01:58;33.92;;;23.25;;
35022;SDS011;21214;44.912;8.204;2023-12-29T14:04:25;33.65;;;23.13;;
35022;SDS011;21214;44.912;8.204;2023-12-29T14:06:52;36.60;;;24.27;;
35022;SDS011;21214;44.912;8.204;2023-12-29T14:09:24;33.13;;;24.40;;
35022;SDS011;21214;44.912;8.204;2023-12-29T14:11:49;32.42;;;24.38;;
35022;SDS011;21214;44.912;8.204;2023-12-29T14:14:23;36.35;;;24.25;;
35022;SDS011;21214;44.912;8.204;2023-12-29T14:16:53;31.08;;;23.00;;
35022;SDS011;21214;44.912;8.204;2023-12-29T14:19:19;35.95;;;24.88;;
35022;SDS011;21214;44.912;8.204;2023-12-29T14:21:45;32.03;;;24.30;;
35022;SDS011;21214;44.912;8.204;2023-12-29T14:24:17;34.95;;;26.05;;
35022;SDS011;21214;44.912;8.204;2023-12-29T14:29:18;31.48;;;24.58;;
35022;SDS011;21214;44.912;8.204;2023-12-29T14:31:44;38.40;;;25.67;;
35022;SDS011;21214;44.912;8.204;2023-12-29T14:34:10;36.20;;;25.35;;
35022;SDS011;21214;44.912;8.204;2023-12-29T14:36:37;33.20;;;25.08;;
35022;SDS011;21214;44.912;8.204;2023-12-29T14:39:04;33.83;;;25.83;;
35022;SDS011;21214;44.912;8.204;2023-12-29T14:41:31;35.25;;;24.70;;
35022;SDS011;21214;44.912;8.204;2023-12-29T14:43:56;35.67;;;26.52;;
35022;SDS011;21214;44.912;8.204;2023-12-29T14:46:22;37.95;;;25.98;;
35022;SDS011;21214;44.912;8.204;2023-12-29T14:48:48;38.15;;;26.77;;
35022;SDS011;21214;44.912;8.204;2023-12-29T14:51:14;40.83;;;26.60;;
35022;SDS011;21214;44.912;8.204;2023-12-29T14:53:42;37.80;;;26.35;;
35022;SDS011;21214;44.912;8.204;2023-12-29T14:56:09;39.53;;;27.70;;